sensor_id;sensor_type;location;lat;lon;timestamp;temperature;humidity
10492;DHT22;5293;51.464;-2.566;2023-02-07T00:01:32;3.80;99.90
10492;DHT22;5293;51.464;-2.566;2023-02-07T00:03:58;3.70;99.90
10492;DHT22;5293;51.464;-2.566;2023-02-07T00:06:30;3.70;99.90
10492;DHT22;5293;51.464;-2.566;2023-02-07T00:08:58;3.70;99.90
10492;DHT22;5293;51.464;-2.566;2023-02-07T00:11:24;3.70;99.90
10492;DHT22;5293;51.464;-2.566;2023-02-07T00:13:52;3.70;99.90
10492;DHT22;5293;51.464;-2.566;2023-02-07T00:16:19;3.60;99.90
10492;DHT22;5293;51.464;-2.566;2023-02-07T00:18:45;3.60;99.90
10492;DHT22;5293;51.464;-2.566;2023-02-07T00:21:15;3.60;99.90
10492;DHT22;5293;51.464;-2.566;2023-02-07T00:23:41;3.60;99.90
10492;DHT22;5293;51.464;-2.566;2023-02-07T00:26:08;3.50;99.90
10492;DHT22;5293;51.464;-2.566;2023-02-07T00:28:35;3.50;99.90
10492;DHT22;5293;51.464;-2.566;2023-02-07T00:31:06;3.40;99.90
10492;DHT22;5293;51.464;-2.566;2023-02-07T00:33:33;3.40;99.90
10492;DHT22;5293;51.464;-2.566;2023-02-07T00:36:00;3.40;99.90
10492;DHT22;5293;51.464;-2.566;2023-02-07T00:38:27;3.30;99.90
10492;DHT22;5293;51.464;-2.566;2023-02-07T00:40:52;3.30;99.90
10492;DHT22;5293;51.464;-2.566;2023-02-07T00:43:18;3.30;99.90
10492;DHT22;5293;51.464;-2.566;2023-02-07T00:45:44;3.20;99.90
10492;DHT22;5293;51.464;-2.566;2023-02-07T00:48:09;3.10;99.90
10492;DHT22;5293;51.464;-2.566;2023-02-07T00:50:35;3.00;99.90
10492;DHT22;5293;51.464;-2.566;2023-02-07T00:53:01;3.00;99.90
10492;DHT22;5293;51.464;-2.566;2023-02-07T00:55:26;3.10;99.90
10492;DHT22;5293;51.464;-2.566;2023-02-07T00:57:52;3.00;99.90
10492;DHT22;5293;51.464;-2.566;2023-02-07T01:00:18;3.00;99.90
10492;DHT22;5293;51.464;-2.566;2023-02-07T01:02:44;2.90;99.90
10492;DHT22;5293;51.464;-2.566;2023-02-07T01:05:09;2.90;99.90
10492;DHT22;5293;51.464;-2.566;2023-02-07T01:07:35;2.90;99.90
10492;DHT22;5293;51.464;-2.566;2023-02-07T01:10:01;2.90;99.90
10492;DHT22;5293;51.464;-2.566;2023-02-07T01:12:26;2.90;99.90
10492;DHT22;5293;51.464;-2.566;2023-02-07T01:14:52;3.00;99.90
10492;DHT22;5293;51.464;-2.566;2023-02-07T01:17:18;2.90;99.90
10492;DHT22;5293;51.464;-2.566;2023-02-07T01:19:44;2.90;99.90
10492;DHT22;5293;51.464;-2.566;2023-02-07T01:22:09;2.80;99.90
10492;DHT22;5293;51.464;-2.566;2023-02-07T01:24:35;2.80;99.90
10492;DHT22;5293;51.464;-2.566;2023-02-07T01:27:01;2.80;99.90
10492;DHT22;5293;51.464;-2.566;2023-02-07T01:29:27;2.80;99.90
10492;DHT22;5293;51.464;-2.566;2023-02-07T01:31:52;2.80;99.90
10492;DHT22;5293;51.464;-2.566;2023-02-07T01:34:19;2.80;99.90
10492;DHT22;5293;51.464;-2.566;2023-02-07T01:36:45;2.70;99.90
10492;DHT22;5293;51.464;-2.566;2023-02-07T01:39:10;2.80;99.90
10492;DHT22;5293;51.464;-2.566;2023-02-07T01:41:36;2.80;99.90
10492;DHT22;5293;51.464;-2.566;2023-02-07T01:46:54;2.70;99.90
10492;DHT22;5293;51.464;-2.566;2023-02-07T01:49:23;2.60;99.90
10492;DHT22;5293;51.464;-2.566;2023-02-07T01:52:02;2.60;99.90
10492;DHT22;5293;51.464;-2.566;2023-02-07T01:54:30;2.70;99.90
10492;DHT22;5293;51.464;-2.566;2023-02-07T01:57:00;2.70;99.90
10492;DHT22;5293;51.464;-2.566;2023-02-07T01:59:27;2.70;99.90
10492;DHT22;5293;51.464;-2.566;2023-02-07T02:01:54;2.60;99.90
10492;DHT22;5293;51.464;-2.566;2023-02-07T02:04:20;2.60;99.90
10492;DHT22;5293;51.464;-2.566;2023-02-07T02:06:46;2.60;99.90
10492;DHT22;5293;51.464;-2.566;2023-02-07T02:09:14;2.60;99.90
10492;DHT22;5293;51.464;-2.566;2023-02-07T02:11:48;2.60;99.90
10492;DHT22;5293;51.464;-2.566;2023-02-07T02:20:12;2.60;99.90
10492;DHT22;5293;51.464;-2.566;2023-02-07T02:23:13;2.60;99.90
10492;DHT22;5293;51.464;-2.566;2023-02-07T02:33:59;2.60;99.90
10492;DHT22;5293;51.464;-2.566;2023-02-07T02:39:20;2.80;99.90
10492;DHT22;5293;51.464;-2.566;2023-02-07T02:47:14;2.70;99.90
10492;DHT22;5293;51.464;-2.566;2023-02-07T02:49:40;2.70;99.90
10492;DHT22;5293;51.464;-2.566;2023-02-07T02:52:07;2.70;99.90
10492;DHT22;5293;51.464;-2.566;2023-02-07T02:54:34;2.60;99.90
10492;DHT22;5293;51.464;-2.566;2023-02-07T03:21:48;2.50;99.90
10492;DHT22;5293;51.464;-2.566;2023-02-07T03:24:21;2.50;99.90
10492;DHT22;5293;51.464;-2.566;2023-02-07T03:26:49;2.40;99.90
10492;DHT22;5293;51.464;-2.566;2023-02-07T03:29:19;2.50;99.90
10492;DHT22;5293;51.464;-2.566;2023-02-07T03:31:47;2.50;99.90
10492;DHT22;5293;51.464;-2.566;2023-02-07T03:34:17;2.50;99.90
10492;DHT22;5293;51.464;-2.566;2023-02-07T03:36:57;2.40;99.90
10492;DHT22;5293;51.464;-2.566;2023-02-07T03:39:25;2.40;99.90
10492;DHT22;5293;51.464;-2.566;2023-02-07T03:41:58;2.30;99.90
10492;DHT22;5293;51.464;-2.566;2023-02-07T03:44:26;2.30;99.90
10492;DHT22;5293;51.464;-2.566;2023-02-07T03:46:53;2.30;99.90
10492;DHT22;5293;51.464;-2.566;2023-02-07T03:49:19;2.20;99.90
10492;DHT22;5293;51.464;-2.566;2023-02-07T03:51:44;2.20;99.90
10492;DHT22;5293;51.464;-2.566;2023-02-07T03:54:11;2.20;99.90
10492;DHT22;5293;51.464;-2.566;2023-02-07T03:56:37;2.20;99.90
10492;DHT22;5293;51.464;-2.566;2023-02-07T03:59:02;2.20;99.90
10492;DHT22;5293;51.464;-2.566;2023-02-07T04:01:28;2.10;99.90
10492;DHT22;5293;51.464;-2.566;2023-02-07T04:03:54;2.00;99.90
10492;DHT22;5293;51.464;-2.566;2023-02-07T04:06:20;2.00;99.90
10492;DHT22;5293;51.464;-2.566;2023-02-07T04:08:46;2.00;99.90
10492;DHT22;5293;51.464;-2.566;2023-02-07T04:11:11;1.90;99.90
10492;DHT22;5293;51.464;-2.566;2023-02-07T04:13:37;2.00;99.90
10492;DHT22;5293;51.464;-2.566;2023-02-07T04:16:04;2.00;99.90
10492;DHT22;5293;51.464;-2.566;2023-02-07T04:18:30;1.90;99.90
10492;DHT22;5293;51.464;-2.566;2023-02-07T04:21:04;1.90;99.90
10492;DHT22;5293;51.464;-2.566;2023-02-07T04:23:30;1.90;99.90
10492;DHT22;5293;51.464;-2.566;2023-02-07T04:25:56;1.80;99.90
10492;DHT22;5293;51.464;-2.566;2023-02-07T04:28:22;1.70;99.90
10492;DHT22;5293;51.464;-2.566;2023-02-07T04:30:48;1.70;99.90
10492;DHT22;5293;51.464;-2.566;2023-02-07T04:33:13;1.80;99.90
10492;DHT22;5293;51.464;-2.566;2023-02-07T04:35:39;1.80;99.90
10492;DHT22;5293;51.464;-2.566;2023-02-07T04:38:05;1.70;99.90
10492;DHT22;5293;51.464;-2.566;2023-02-07T04:40:31;1.80;99.90
10492;DHT22;5293;51.464;-2.566;2023-02-07T04:42:57;1.80;99.90
10492;DHT22;5293;51.464;-2.566;2023-02-07T04:45:22;1.80;99.90
10492;DHT22;5293;51.464;-2.566;2023-02-07T04:47:48;1.80;99.90
10492;DHT22;5293;51.464;-2.566;2023-02-07T04:50:14;1.70;99.90
10492;DHT22;5293;51.464;-2.566;2023-02-07T04:52:40;1.60;99.90
10492;DHT22;5293;51.464;-2.566;2023-02-07T04:55:07;1.60;99.90
10492;DHT22;5293;51.464;-2.566;2023-02-07T04:57:33;1.60;99.90
10492;DHT22;5293;51.464;-2.566;2023-02-07T04:59:59;1.60;99.90
10492;DHT22;5293;51.464;-2.566;2023-02-07T05:02:24;1.60;99.90
10492;DHT22;5293;51.464;-2.566;2023-02-07T05:04:50;1.60;99.90
10492;DHT22;5293;51.464;-2.566;2023-02-07T05:07:16;1.60;99.90
10492;DHT22;5293;51.464;-2.566;2023-02-07T05:09:42;1.70;99.90
10492;DHT22;5293;51.464;-2.566;2023-02-07T05:12:08;1.60;99.90
10492;DHT22;5293;51.464;-2.566;2023-02-07T05:14:33;1.50;99.90
10492;DHT22;5293;51.464;-2.566;2023-02-07T05:16:59;1.60;99.90
10492;DHT22;5293;51.464;-2.566;2023-02-07T05:19:25;1.60;99.90
10492;DHT22;5293;51.464;-2.566;2023-02-07T05:21:50;1.60;99.90
10492;DHT22;5293;51.464;-2.566;2023-02-07T05:24:16;1.60;99.90
10492;DHT22;5293;51.464;-2.566;2023-02-07T05:26:42;1.50;99.90
10492;DHT22;5293;51.464;-2.566;2023-02-07T05:29:07;1.50;99.90
10492;DHT22;5293;51.464;-2.566;2023-02-07T05:31:33;1.50;99.90
10492;DHT22;5293;51.464;-2.566;2023-02-07T05:34:17;1.50;99.90
10492;DHT22;5293;51.464;-2.566;2023-02-07T05:36:43;1.40;99.90
10492;DHT22;5293;51.464;-2.566;2023-02-07T05:39:08;1.30;99.90
10492;DHT22;5293;51.464;-2.566;2023-02-07T05:41:34;1.30;99.90
10492;DHT22;5293;51.464;-2.566;2023-02-07T05:44:00;1.30;99.90
10492;DHT22;5293;51.464;-2.566;2023-02-07T05:46:25;1.40;99.90
10492;DHT22;5293;51.464;-2.566;2023-02-07T05:48:51;1.50;99.90
10492;DHT22;5293;51.464;-2.566;2023-02-07T05:51:17;1.50;99.90
10492;DHT22;5293;51.464;-2.566;2023-02-07T05:53:43;1.50;99.90
10492;DHT22;5293;51.464;-2.566;2023-02-07T05:56:09;1.50;99.90
10492;DHT22;5293;51.464;-2.566;2023-02-07T05:58:34;1.40;99.90
10492;DHT22;5293;51.464;-2.566;2023-02-07T06:01:00;1.40;99.90
10492;DHT22;5293;51.464;-2.566;2023-02-07T06:03:25;1.30;99.90
10492;DHT22;5293;51.464;-2.566;2023-02-07T06:05:51;1.30;99.90
10492;DHT22;5293;51.464;-2.566;2023-02-07T06:08:17;1.20;99.90
10492;DHT22;5293;51.464;-2.566;2023-02-07T06:10:42;1.30;99.90
10492;DHT22;5293;51.464;-2.566;2023-02-07T06:13:08;1.30;99.90
10492;DHT22;5293;51.464;-2.566;2023-02-07T06:15:34;1.20;99.90
10492;DHT22;5293;51.464;-2.566;2023-02-07T06:17:59;1.20;99.90
10492;DHT22;5293;51.464;-2.566;2023-02-07T06:20:25;1.10;99.90
10492;DHT22;5293;51.464;-2.566;2023-02-07T06:22:50;1.20;99.90
10492;DHT22;5293;51.464;-2.566;2023-02-07T06:25:16;1.10;99.90
10492;DHT22;5293;51.464;-2.566;2023-02-07T06:27:42;1.10;99.90
10492;DHT22;5293;51.464;-2.566;2023-02-07T06:30:10;1.20;99.90
10492;DHT22;5293;51.464;-2.566;2023-02-07T06:32:36;1.20;99.90
10492;DHT22;5293;51.464;-2.566;2023-02-07T06:35:02;1.20;99.90
10492;DHT22;5293;51.464;-2.566;2023-02-07T06:37:28;1.30;99.90
10492;DHT22;5293;51.464;-2.566;2023-02-07T06:39:53;1.30;99.90
10492;DHT22;5293;51.464;-2.566;2023-02-07T06:42:19;1.20;99.90
10492;DHT22;5293;51.464;-2.566;2023-02-07T06:44:45;1.20;99.90
10492;DHT22;5293;51.464;-2.566;2023-02-07T06:47:10;1.20;99.90
10492;DHT22;5293;51.464;-2.566;2023-02-07T06:49:36;1.30;99.90
10492;DHT22;5293;51.464;-2.566;2023-02-07T06:52:02;1.20;99.90
10492;DHT22;5293;51.464;-2.566;2023-02-07T06:54:28;1.20;99.90
10492;DHT22;5293;51.464;-2.566;2023-02-07T06:56:53;1.30;99.90
10492;DHT22;5293;51.464;-2.566;2023-02-07T06:59:19;1.30;99.90
10492;DHT22;5293;51.464;-2.566;2023-02-07T07:01:44;1.20;99.90
10492;DHT22;5293;51.464;-2.566;2023-02-07T07:04:10;1.30;99.90
10492;DHT22;5293;51.464;-2.566;2023-02-07T07:06:36;1.20;99.90
10492;DHT22;5293;51.464;-2.566;2023-02-07T07:09:02;1.20;99.90
10492;DHT22;5293;51.464;-2.566;2023-02-07T07:11:28;1.20;99.90
10492;DHT22;5293;51.464;-2.566;2023-02-07T07:13:54;1.10;99.90
10492;DHT22;5293;51.464;-2.566;2023-02-07T07:16:19;1.10;99.90
10492;DHT22;5293;51.464;-2.566;2023-02-07T07:18:45;1.10;99.90
10492;DHT22;5293;51.464;-2.566;2023-02-07T07:21:11;1.10;99.90
10492;DHT22;5293;51.464;-2.566;2023-02-07T07:23:37;1.00;99.90
10492;DHT22;5293;51.464;-2.566;2023-02-07T07:26:03;1.00;99.90
10492;DHT22;5293;51.464;-2.566;2023-02-07T07:28:30;0.90;99.90
10492;DHT22;5293;51.464;-2.566;2023-02-07T07:31:01;0.90;99.90
10492;DHT22;5293;51.464;-2.566;2023-02-07T07:33:27;0.90;99.90
10492;DHT22;5293;51.464;-2.566;2023-02-07T07:36:00;0.90;99.90
10492;DHT22;5293;51.464;-2.566;2023-02-07T07:38:26;0.90;99.90
10492;DHT22;5293;51.464;-2.566;2023-02-07T07:40:51;0.90;99.90
10492;DHT22;5293;51.464;-2.566;2023-02-07T07:43:17;0.90;99.90
10492;DHT22;5293;51.464;-2.566;2023-02-07T07:45:45;0.80;99.90
10492;DHT22;5293;51.464;-2.566;2023-02-07T07:48:14;0.80;99.90
10492;DHT22;5293;51.464;-2.566;2023-02-07T07:50:40;0.80;99.90
10492;DHT22;5293;51.464;-2.566;2023-02-07T07:53:06;0.90;99.90
10492;DHT22;5293;51.464;-2.566;2023-02-07T07:55:32;0.80;99.90
10492;DHT22;5293;51.464;-2.566;2023-02-07T07:57:57;0.80;99.90
10492;DHT22;5293;51.464;-2.566;2023-02-07T08:00:23;0.90;99.90
10492;DHT22;5293;51.464;-2.566;2023-02-07T08:02:49;1.00;99.90
10492;DHT22;5293;51.464;-2.566;2023-02-07T08:05:14;1.00;99.90
10492;DHT22;5293;51.464;-2.566;2023-02-07T08:07:40;1.00;99.90
10492;DHT22;5293;51.464;-2.566;2023-02-07T08:10:06;0.90;99.90
10492;DHT22;5293;51.464;-2.566;2023-02-07T08:12:32;0.90;99.90
10492;DHT22;5293;51.464;-2.566;2023-02-07T08:14:58;0.90;99.90
10492;DHT22;5293;51.464;-2.566;2023-02-07T08:17:24;1.00;99.90
10492;DHT22;5293;51.464;-2.566;2023-02-07T08:19:49;1.00;99.90
10492;DHT22;5293;51.464;-2.566;2023-02-07T08:22:15;1.10;99.90
10492;DHT22;5293;51.464;-2.566;2023-02-07T08:24:41;1.00;99.90
10492;DHT22;5293;51.464;-2.566;2023-02-07T08:27:06;1.10;99.90
10492;DHT22;5293;51.464;-2.566;2023-02-07T08:29:32;1.10;99.90
10492;DHT22;5293;51.464;-2.566;2023-02-07T08:31:58;1.10;99.90
10492;DHT22;5293;51.464;-2.566;2023-02-07T08:34:24;1.10;99.90
10492;DHT22;5293;51.464;-2.566;2023-02-07T08:36:53;1.10;99.90
10492;DHT22;5293;51.464;-2.566;2023-02-07T08:39:19;1.10;99.90
10492;DHT22;5293;51.464;-2.566;2023-02-07T08:41:44;1.10;99.90
10492;DHT22;5293;51.464;-2.566;2023-02-07T08:44:10;1.10;99.90
10492;DHT22;5293;51.464;-2.566;2023-02-07T08:46:36;1.20;99.90
10492;DHT22;5293;51.464;-2.566;2023-02-07T08:49:01;1.20;99.90
10492;DHT22;5293;51.464;-2.566;2023-02-07T08:51:27;1.20;99.90
10492;DHT22;5293;51.464;-2.566;2023-02-07T08:53:53;1.20;99.90
10492;DHT22;5293;51.464;-2.566;2023-02-07T08:56:19;1.20;99.90
10492;DHT22;5293;51.464;-2.566;2023-02-07T08:58:44;1.20;99.90
10492;DHT22;5293;51.464;-2.566;2023-02-07T09:01:10;1.20;99.90
10492;DHT22;5293;51.464;-2.566;2023-02-07T09:03:37;1.20;99.90
10492;DHT22;5293;51.464;-2.566;2023-02-07T09:06:03;1.30;99.90
10492;DHT22;5293;51.464;-2.566;2023-02-07T09:08:28;1.30;99.90
10492;DHT22;5293;51.464;-2.566;2023-02-07T09:10:54;1.40;99.90
10492;DHT22;5293;51.464;-2.566;2023-02-07T09:13:20;1.40;99.90
10492;DHT22;5293;51.464;-2.566;2023-02-07T09:15:55;1.50;99.90
10492;DHT22;5293;51.464;-2.566;2023-02-07T09:18:21;1.40;99.90
10492;DHT22;5293;51.464;-2.566;2023-02-07T09:20:47;1.40;99.90
10492;DHT22;5293;51.464;-2.566;2023-02-07T09:23:13;1.40;99.90
10492;DHT22;5293;51.464;-2.566;2023-02-07T09:25:49;1.40;99.90
10492;DHT22;5293;51.464;-2.566;2023-02-07T09:28:16;1.40;99.90
10492;DHT22;5293;51.464;-2.566;2023-02-07T09:30:43;1.60;99.90
10492;DHT22;5293;51.464;-2.566;2023-02-07T09:33:10;1.70;99.90
10492;DHT22;5293;51.464;-2.566;2023-02-07T09:35:44;1.80;99.90
10492;DHT22;5293;51.464;-2.566;2023-02-07T09:38:20;1.80;99.90
10492;DHT22;5293;51.464;-2.566;2023-02-07T09:40:47;1.90;99.90
10492;DHT22;5293;51.464;-2.566;2023-02-07T09:43:28;2.00;99.90
10492;DHT22;5293;51.464;-2.566;2023-02-07T09:46:01;2.10;99.90
10492;DHT22;5293;51.464;-2.566;2023-02-07T09:48:50;2.10;99.90
10492;DHT22;5293;51.464;-2.566;2023-02-07T09:51:18;2.20;99.90
10492;DHT22;5293;51.464;-2.566;2023-02-07T09:56:16;2.20;99.90
10492;DHT22;5293;51.464;-2.566;2023-02-07T09:58:56;2.40;99.90
10492;DHT22;5293;51.464;-2.566;2023-02-07T10:01:29;2.40;99.90
10492;DHT22;5293;51.464;-2.566;2023-02-07T10:06:44;2.60;99.90
10492;DHT22;5293;51.464;-2.566;2023-02-07T10:09:17;2.60;99.90
10492;DHT22;5293;51.464;-2.566;2023-02-07T10:17:37;3.00;99.90
10492;DHT22;5293;51.464;-2.566;2023-02-07T10:23:00;3.10;99.90
10492;DHT22;5293;51.464;-2.566;2023-02-07T10:25:31;3.20;99.90
10492;DHT22;5293;51.464;-2.566;2023-02-07T10:33:16;3.40;99.90
10492;DHT22;5293;51.464;-2.566;2023-02-07T10:35:44;3.50;99.90
10492;DHT22;5293;51.464;-2.566;2023-02-07T10:38:34;3.70;99.90
10492;DHT22;5293;51.464;-2.566;2023-02-07T10:41:08;3.80;99.90
10492;DHT22;5293;51.464;-2.566;2023-02-07T10:43:34;3.80;99.90
10492;DHT22;5293;51.464;-2.566;2023-02-07T10:46:05;3.80;99.90
10492;DHT22;5293;51.464;-2.566;2023-02-07T10:48:32;3.90;99.90
10492;DHT22;5293;51.464;-2.566;2023-02-07T10:53:49;4.10;99.90
10492;DHT22;5293;51.464;-2.566;2023-02-07T10:56:23;4.30;99.90
10492;DHT22;5293;51.464;-2.566;2023-02-07T10:58:50;4.30;99.90
10492;DHT22;5293;51.464;-2.566;2023-02-07T11:01:24;4.50;99.90
10492;DHT22;5293;51.464;-2.566;2023-02-07T11:03:51;4.60;99.90
10492;DHT22;5293;51.464;-2.566;2023-02-07T11:06:31;4.70;99.90
10492;DHT22;5293;51.464;-2.566;2023-02-07T11:09:33;5.00;99.90
10492;DHT22;5293;51.464;-2.566;2023-02-07T11:12:13;5.10;99.90
10492;DHT22;5293;51.464;-2.566;2023-02-07T11:14:39;5.40;99.90
10492;DHT22;5293;51.464;-2.566;2023-02-07T11:17:05;5.50;99.90
10492;DHT22;5293;51.464;-2.566;2023-02-07T11:19:31;5.60;99.90
10492;DHT22;5293;51.464;-2.566;2023-02-07T11:22:15;5.70;99.90
10492;DHT22;5293;51.464;-2.566;2023-02-07T11:24:42;5.80;99.90
10492;DHT22;5293;51.464;-2.566;2023-02-07T11:27:19;6.00;99.90
10492;DHT22;5293;51.464;-2.566;2023-02-07T11:29:54;6.00;99.90
10492;DHT22;5293;51.464;-2.566;2023-02-07T11:32:22;6.00;99.90
10492;DHT22;5293;51.464;-2.566;2023-02-07T11:35:03;6.10;99.90
10492;DHT22;5293;51.464;-2.566;2023-02-07T11:37:38;6.10;99.90
10492;DHT22;5293;51.464;-2.566;2023-02-07T11:40:23;6.20;99.90
10492;DHT22;5293;51.464;-2.566;2023-02-07T11:43:05;6.30;99.90
10492;DHT22;5293;51.464;-2.566;2023-02-07T11:45:35;6.30;99.90
10492;DHT22;5293;51.464;-2.566;2023-02-07T11:48:03;6.30;99.90
10492;DHT22;5293;51.464;-2.566;2023-02-07T11:50:30;6.30;99.90
10492;DHT22;5293;51.464;-2.566;2023-02-07T11:52:58;6.40;99.90
10492;DHT22;5293;51.464;-2.566;2023-02-07T11:55:39;6.30;99.90
10492;DHT22;5293;51.464;-2.566;2023-02-07T11:58:16;6.30;99.90
10492;DHT22;5293;51.464;-2.566;2023-02-07T12:00:43;6.40;99.90
10492;DHT22;5293;51.464;-2.566;2023-02-07T12:06:28;6.50;99.90
10492;DHT22;5293;51.464;-2.566;2023-02-07T12:08:57;6.50;99.90
10492;DHT22;5293;51.464;-2.566;2023-02-07T12:11:27;6.50;99.90
10492;DHT22;5293;51.464;-2.566;2023-02-07T12:14:01;6.50;99.90
10492;DHT22;5293;51.464;-2.566;2023-02-07T12:16:31;6.60;99.90
10492;DHT22;5293;51.464;-2.566;2023-02-07T12:19:07;6.60;99.90
10492;DHT22;5293;51.464;-2.566;2023-02-07T12:21:55;6.60;99.90
10492;DHT22;5293;51.464;-2.566;2023-02-07T12:24:32;6.70;99.90
10492;DHT22;5293;51.464;-2.566;2023-02-07T12:27:16;6.60;99.90
10492;DHT22;5293;51.464;-2.566;2023-02-07T12:30:10;6.70;99.90
10492;DHT22;5293;51.464;-2.566;2023-02-07T12:32:53;6.60;99.90
10492;DHT22;5293;51.464;-2.566;2023-02-07T12:38:23;6.60;99.90
10492;DHT22;5293;51.464;-2.566;2023-02-07T12:43:26;6.70;99.90
10492;DHT22;5293;51.464;-2.566;2023-02-07T12:49:02;6.80;99.90
10492;DHT22;5293;51.464;-2.566;2023-02-07T12:51:40;6.90;99.90
10492;DHT22;5293;51.464;-2.566;2023-02-07T12:54:48;6.90;99.90
10492;DHT22;5293;51.464;-2.566;2023-02-07T13:00:15;7.00;99.90
10492;DHT22;5293;51.464;-2.566;2023-02-07T13:19:42;7.70;99.90
10492;DHT22;5293;51.464;-2.566;2023-02-07T13:22:27;7.80;99.90
10492;DHT22;5293;51.464;-2.566;2023-02-07T13:24:55;7.80;99.90
10492;DHT22;5293;51.464;-2.566;2023-02-07T13:27:22;7.80;99.90
10492;DHT22;5293;51.464;-2.566;2023-02-07T13:29:50;7.80;99.90
10492;DHT22;5293;51.464;-2.566;2023-02-07T13:32:24;7.80;99.90
10492;DHT22;5293;51.464;-2.566;2023-02-07T13:34:52;7.80;99.90
10492;DHT22;5293;51.464;-2.566;2023-02-07T13:37:21;7.80;99.90
10492;DHT22;5293;51.464;-2.566;2023-02-07T13:45:18;8.10;99.90
10492;DHT22;5293;51.464;-2.566;2023-02-07T13:48:07;8.10;99.90
10492;DHT22;5293;51.464;-2.566;2023-02-07T13:56:33;8.50;99.90
10492;DHT22;5293;51.464;-2.566;2023-02-07T13:59:36;8.60;99.90
10492;DHT22;5293;51.464;-2.566;2023-02-07T14:02:25;8.60;99.90
10492;DHT22;5293;51.464;-2.566;2023-02-07T14:04:54;8.80;99.90
10492;DHT22;5293;51.464;-2.566;2023-02-07T14:07:29;8.80;99.90
10492;DHT22;5293;51.464;-2.566;2023-02-07T14:09:56;8.80;99.90
10492;DHT22;5293;51.464;-2.566;2023-02-07T14:14:55;8.80;99.90
10492;DHT22;5293;51.464;-2.566;2023-02-07T14:25:41;9.00;99.90
10492;DHT22;5293;51.464;-2.566;2023-02-07T14:30:57;9.00;99.90
10492;DHT22;5293;51.464;-2.566;2023-02-07T14:33:37;9.00;99.90
10492;DHT22;5293;51.464;-2.566;2023-02-07T14:38:38;9.00;99.90
10492;DHT22;5293;51.464;-2.566;2023-02-07T14:41:12;9.00;99.90
10492;DHT22;5293;51.464;-2.566;2023-02-07T14:43:53;9.20;99.90
10492;DHT22;5293;51.464;-2.566;2023-02-07T14:46:39;9.10;99.90
10492;DHT22;5293;51.464;-2.566;2023-02-07T14:49:21;9.00;99.90
10492;DHT22;5293;51.464;-2.566;2023-02-07T14:51:56;9.00;99.90
10492;DHT22;5293;51.464;-2.566;2023-02-07T14:54:49;9.00;99.90
10492;DHT22;5293;51.464;-2.566;2023-02-07T14:57:43;9.00;99.90
10492;DHT22;5293;51.464;-2.566;2023-02-07T15:05:52;9.20;99.90
10492;DHT22;5293;51.464;-2.566;2023-02-07T15:08:20;9.10;99.90
10492;DHT22;5293;51.464;-2.566;2023-02-07T15:13:42;9.20;99.90
10492;DHT22;5293;51.464;-2.566;2023-02-07T15:16:15;9.20;99.90
10492;DHT22;5293;51.464;-2.566;2023-02-07T15:18:45;9.20;99.90
10492;DHT22;5293;51.464;-2.566;2023-02-07T15:23:47;9.10;99.90
10492;DHT22;5293;51.464;-2.566;2023-02-07T15:26:17;9.10;99.90
10492;DHT22;5293;51.464;-2.566;2023-02-07T15:28:43;9.10;99.90
10492;DHT22;5293;51.464;-2.566;2023-02-07T15:31:15;9.20;99.90
10492;DHT22;5293;51.464;-2.566;2023-02-07T15:33:51;9.20;99.90
10492;DHT22;5293;51.464;-2.566;2023-02-07T15:36:44;9.10;99.90
10492;DHT22;5293;51.464;-2.566;2023-02-07T15:39:21;9.00;99.90
10492;DHT22;5293;51.464;-2.566;2023-02-07T15:41:49;9.00;99.90
10492;DHT22;5293;51.464;-2.566;2023-02-07T15:44:31;9.00;99.90
10492;DHT22;5293;51.464;-2.566;2023-02-07T15:47:03;9.00;99.90
10492;DHT22;5293;51.464;-2.566;2023-02-07T15:52:26;8.90;99.90
10492;DHT22;5293;51.464;-2.566;2023-02-07T15:54:54;8.90;99.90
10492;DHT22;5293;51.464;-2.566;2023-02-07T15:57:29;8.90;99.90
10492;DHT22;5293;51.464;-2.566;2023-02-07T16:00:05;8.90;99.90
10492;DHT22;5293;51.464;-2.566;2023-02-07T16:02:33;8.90;99.90
10492;DHT22;5293;51.464;-2.566;2023-02-07T16:05:09;8.80;99.90
10492;DHT22;5293;51.464;-2.566;2023-02-07T16:07:36;8.70;99.90
10492;DHT22;5293;51.464;-2.566;2023-02-07T16:12:58;8.60;99.90
10492;DHT22;5293;51.464;-2.566;2023-02-07T16:15:27;8.60;99.90
10492;DHT22;5293;51.464;-2.566;2023-02-07T16:17:54;8.50;99.90
10492;DHT22;5293;51.464;-2.566;2023-02-07T16:20:20;8.40;99.90
10492;DHT22;5293;51.464;-2.566;2023-02-07T16:22:47;8.50;99.90
10492;DHT22;5293;51.464;-2.566;2023-02-07T16:25:21;8.40;99.90
10492;DHT22;5293;51.464;-2.566;2023-02-07T16:27:50;8.40;99.90
10492;DHT22;5293;51.464;-2.566;2023-02-07T16:30:20;8.30;99.90
10492;DHT22;5293;51.464;-2.566;2023-02-07T16:32:46;8.30;99.90
10492;DHT22;5293;51.464;-2.566;2023-02-07T16:35:21;8.30;99.90
10492;DHT22;5293;51.464;-2.566;2023-02-07T16:37:46;8.20;99.90
10492;DHT22;5293;51.464;-2.566;2023-02-07T16:40:12;8.20;99.90
10492;DHT22;5293;51.464;-2.566;2023-02-07T16:42:39;8.10;99.90
10492;DHT22;5293;51.464;-2.566;2023-02-07T16:45:05;8.10;99.90
10492;DHT22;5293;51.464;-2.566;2023-02-07T16:47:34;8.00;99.90
10492;DHT22;5293;51.464;-2.566;2023-02-07T16:50:00;8.00;99.90
10492;DHT22;5293;51.464;-2.566;2023-02-07T16:52:26;8.00;99.90
10492;DHT22;5293;51.464;-2.566;2023-02-07T16:54:51;7.90;99.90
10492;DHT22;5293;51.464;-2.566;2023-02-07T16:57:17;7.90;99.90
10492;DHT22;5293;51.464;-2.566;2023-02-07T16:59:42;7.90;99.90
10492;DHT22;5293;51.464;-2.566;2023-02-07T17:02:17;7.80;99.90
10492;DHT22;5293;51.464;-2.566;2023-02-07T17:04:43;7.80;99.90
10492;DHT22;5293;51.464;-2.566;2023-02-07T17:07:10;7.80;99.90
10492;DHT22;5293;51.464;-2.566;2023-02-07T17:09:36;7.80;99.90
10492;DHT22;5293;51.464;-2.566;2023-02-07T17:12:02;7.80;99.90
10492;DHT22;5293;51.464;-2.566;2023-02-07T17:14:27;7.70;99.90
10492;DHT22;5293;51.464;-2.566;2023-02-07T17:16:53;7.70;99.90
10492;DHT22;5293;51.464;-2.566;2023-02-07T17:19:21;7.70;99.90
10492;DHT22;5293;51.464;-2.566;2023-02-07T17:21:48;7.70;99.90
10492;DHT22;5293;51.464;-2.566;2023-02-07T17:24:14;7.60;99.90
10492;DHT22;5293;51.464;-2.566;2023-02-07T17:26:42;7.60;99.90
10492;DHT22;5293;51.464;-2.566;2023-02-07T17:29:14;7.60;99.90
10492;DHT22;5293;51.464;-2.566;2023-02-07T17:31:40;7.60;99.90
10492;DHT22;5293;51.464;-2.566;2023-02-07T17:34:06;7.60;99.90
10492;DHT22;5293;51.464;-2.566;2023-02-07T17:36:32;7.60;99.90
10492;DHT22;5293;51.464;-2.566;2023-02-07T17:38:59;7.60;99.90
10492;DHT22;5293;51.464;-2.566;2023-02-07T17:41:25;7.60;99.90
10492;DHT22;5293;51.464;-2.566;2023-02-07T17:43:51;7.60;99.90
10492;DHT22;5293;51.464;-2.566;2023-02-07T17:46:19;7.60;99.90
10492;DHT22;5293;51.464;-2.566;2023-02-07T17:48:46;7.50;99.90
10492;DHT22;5293;51.464;-2.566;2023-02-07T17:51:14;7.50;99.90
10492;DHT22;5293;51.464;-2.566;2023-02-07T17:53:39;7.50;99.90
10492;DHT22;5293;51.464;-2.566;2023-02-07T17:56:05;7.50;99.90
10492;DHT22;5293;51.464;-2.566;2023-02-07T17:58:32;7.50;99.90
10492;DHT22;5293;51.464;-2.566;2023-02-07T18:01:02;7.50;99.90
10492;DHT22;5293;51.464;-2.566;2023-02-07T18:03:28;7.50;99.90
10492;DHT22;5293;51.464;-2.566;2023-02-07T18:05:54;7.40;99.90
10492;DHT22;5293;51.464;-2.566;2023-02-07T18:08:22;7.40;99.90
10492;DHT22;5293;51.464;-2.566;2023-02-07T18:10:47;7.30;99.90
10492;DHT22;5293;51.464;-2.566;2023-02-07T18:13:13;7.30;99.90
10492;DHT22;5293;51.464;-2.566;2023-02-07T18:15:39;7.30;99.90
10492;DHT22;5293;51.464;-2.566;2023-02-07T18:18:04;7.30;99.90
10492;DHT22;5293;51.464;-2.566;2023-02-07T18:20:32;7.30;99.90
10492;DHT22;5293;51.464;-2.566;2023-02-07T18:22:59;7.20;99.90
10492;DHT22;5293;51.464;-2.566;2023-02-07T18:25:26;7.10;99.90